sensor_id;sensor_type;location;lat;lon;timestamp;P1;durP1;ratioP1;P2;durP2;ratioP2
5831;SDS011;50943;51.448;7.646;2023-05-10T00:02:19;5.53;;;3.20;;
5831;SDS011;50943;51.448;7.646;2023-05-10T00:04:47;5.03;;;2.97;;
5831;SDS011;50943;51.448;7.646;2023-05-10T00:07:14;5.00;;;3.07;;
5831;SDS011;50943;51.448;7.646;2023-05-10T00:09:42;4.40;;;2.80;;
5831;SDS011;50943;51.448;7.646;2023-05-10T00:12:09;6.57;;;2.70;;
5831;SDS011;50943;51.448;7.646;2023-05-10T00:14:37;4.43;;;2.93;;
5831;SDS011;50943;51.448;7.646;2023-05-10T00:17:04;4.27;;;2.40;;
5831;SDS011;50943;51.448;7.646;2023-05-10T00:19:30;3.80;;;2.13;;
5831;SDS011;50943;51.448;7.646;2023-05-10T00:21:57;5.23;;;2.30;;
5831;SDS011;50943;51.448;7.646;2023-05-10T00:24:24;3.77;;;2.20;;
5831;SDS011;50943;51.448;7.646;2023-05-10T00:26:50;3.83;;;2.23;;
5831;SDS011;50943;51.448;7.646;2023-05-10T00:29:17;4.07;;;2.60;;
5831;SDS011;50943;51.448;7.646;2023-05-10T00:31:46;4.37;;;2.80;;
5831;SDS011;50943;51.448;7.646;2023-05-10T00:34:15;3.93;;;2.03;;
5831;SDS011;50943;51.448;7.646;2023-05-10T00:36:41;5.87;;;2.83;;
5831;SDS011;50943;51.448;7.646;2023-05-10T00:39:08;4.50;;;3.00;;
5831;SDS011;50943;51.448;7.646;2023-05-10T00:41:34;4.80;;;2.40;;
5831;SDS011;50943;51.448;7.646;2023-05-10T00:44:02;4.10;;;2.37;;
5831;SDS011;50943;51.448;7.646;2023-05-10T00:46:29;4.13;;;2.40;;
5831;SDS011;50943;51.448;7.646;2023-05-10T00:48:58;4.27;;;2.20;;
5831;SDS011;50943;51.448;7.646;2023-05-10T00:51:25;3.80;;;2.30;;
5831;SDS011;50943;51.448;7.646;2023-05-10T00:53:52;5.47;;;2.50;;
5831;SDS011;50943;51.448;7.646;2023-05-10T00:56:19;3.93;;;2.13;;
5831;SDS011;50943;51.448;7.646;2023-05-10T00:58:48;3.70;;;2.33;;
5831;SDS011;50943;51.448;7.646;2023-05-10T01:01:14;3.77;;;2.43;;
5831;SDS011;50943;51.448;7.646;2023-05-10T01:03:41;3.80;;;2.10;;
5831;SDS011;50943;51.448;7.646;2023-05-10T01:06:09;3.90;;;2.23;;
5831;SDS011;50943;51.448;7.646;2023-05-10T01:08:36;5.60;;;3.07;;
5831;SDS011;50943;51.448;7.646;2023-05-10T01:11:03;5.53;;;2.40;;
5831;SDS011;50943;51.448;7.646;2023-05-10T01:13:31;3.60;;;1.90;;
5831;SDS011;50943;51.448;7.646;2023-05-10T01:15:59;3.90;;;1.97;;
5831;SDS011;50943;51.448;7.646;2023-05-10T01:18:28;4.10;;;2.40;;
5831;SDS011;50943;51.448;7.646;2023-05-10T01:20:57;6.30;;;2.50;;
5831;SDS011;50943;51.448;7.646;2023-05-10T01:23:34;5.43;;;3.10;;
5831;SDS011;50943;51.448;7.646;2023-05-10T01:26:17;6.10;;;2.37;;
5831;SDS011;50943;51.448;7.646;2023-05-10T01:28:56;6.67;;;2.70;;
5831;SDS011;50943;51.448;7.646;2023-05-10T01:31:30;7.00;;;2.70;;
5831;SDS011;50943;51.448;7.646;2023-05-10T01:34:02;6.33;;;2.50;;
5831;SDS011;50943;51.448;7.646;2023-05-10T01:36:30;7.90;;;2.63;;
5831;SDS011;50943;51.448;7.646;2023-05-10T01:39:30;5.87;;;2.67;;
5831;SDS011;50943;51.448;7.646;2023-05-10T01:45:07;5.70;;;3.30;;
5831;SDS011;50943;51.448;7.646;2023-05-10T01:47:40;6.27;;;3.50;;
5831;SDS011;50943;51.448;7.646;2023-05-10T01:50:10;8.70;;;3.40;;
5831;SDS011;50943;51.448;7.646;2023-05-10T01:52:41;5.43;;;3.07;;
5831;SDS011;50943;51.448;7.646;2023-05-10T01:55:10;8.37;;;3.70;;
5831;SDS011;50943;51.448;7.646;2023-05-10T01:57:37;6.43;;;3.20;;
5831;SDS011;50943;51.448;7.646;2023-05-10T02:00:06;8.10;;;4.10;;
5831;SDS011;50943;51.448;7.646;2023-05-10T02:02:34;7.63;;;3.97;;
5831;SDS011;50943;51.448;7.646;2023-05-10T02:05:01;9.87;;;4.50;;
5831;SDS011;50943;51.448;7.646;2023-05-10T02:07:31;9.03;;;4.60;;
5831;SDS011;50943;51.448;7.646;2023-05-10T02:10:00;10.13;;;5.47;;
5831;SDS011;50943;51.448;7.646;2023-05-10T02:12:28;10.60;;;5.20;;
5831;SDS011;50943;51.448;7.646;2023-05-10T02:14:56;9.10;;;5.17;;
5831;SDS011;50943;51.448;7.646;2023-05-10T02:17:24;10.10;;;4.77;;
5831;SDS011;50943;51.448;7.646;2023-05-10T02:19:52;9.83;;;5.40;;
5831;SDS011;50943;51.448;7.646;2023-05-10T02:22:20;9.50;;;5.20;;
5831;SDS011;50943;51.448;7.646;2023-05-10T02:24:49;11.70;;;5.70;;
5831;SDS011;50943;51.448;7.646;2023-05-10T02:27:15;15.03;;;5.80;;
5831;SDS011;50943;51.448;7.646;2023-05-10T02:29:45;11.73;;;5.80;;
5831;SDS011;50943;51.448;7.646;2023-05-10T02:32:13;11.30;;;5.73;;
5831;SDS011;50943;51.448;7.646;2023-05-10T02:34:40;12.87;;;6.10;;
5831;SDS011;50943;51.448;7.646;2023-05-10T02:37:10;11.57;;;6.90;;
5831;SDS011;50943;51.448;7.646;2023-05-10T02:39:39;11.60;;;6.70;;
5831;SDS011;50943;51.448;7.646;2023-05-10T02:42:10;11.17;;;6.23;;
5831;SDS011;50943;51.448;7.646;2023-05-10T02:44:40;12.83;;;6.70;;
5831;SDS011;50943;51.448;7.646;2023-05-10T02:47:08;11.70;;;5.90;;
5831;SDS011;50943;51.448;7.646;2023-05-10T02:49:35;11.40;;;6.43;;
5831;SDS011;50943;51.448;7.646;2023-05-10T02:52:02;11.83;;;6.10;;
5831;SDS011;50943;51.448;7.646;2023-05-10T02:54:33;11.53;;;6.23;;
5831;SDS011;50943;51.448;7.646;2023-05-10T02:57:03;10.73;;;5.37;;
5831;SDS011;50943;51.448;7.646;2023-05-10T02:59:31;8.40;;;4.43;;
5831;SDS011;50943;51.448;7.646;2023-05-10T03:01:59;8.53;;;4.47;;
5831;SDS011;50943;51.448;7.646;2023-05-10T03:04:27;3.87;;;2.60;;
5831;SDS011;50943;51.448;7.646;2023-05-10T03:06:54;3.70;;;2.17;;
5831;SDS011;50943;51.448;7.646;2023-05-10T03:09:21;3.97;;;2.20;;
5831;SDS011;50943;51.448;7.646;2023-05-10T03:11:50;4.60;;;2.37;;
5831;SDS011;50943;51.448;7.646;2023-05-10T03:14:28;3.50;;;2.10;;
5831;SDS011;50943;51.448;7.646;2023-05-10T03:17:03;3.93;;;1.80;;
5831;SDS011;50943;51.448;7.646;2023-05-10T03:19:32;4.17;;;2.07;;
5831;SDS011;50943;51.448;7.646;2023-05-10T03:22:03;4.20;;;2.30;;
5831;SDS011;50943;51.448;7.646;2023-05-10T03:24:31;5.13;;;1.93;;
5831;SDS011;50943;51.448;7.646;2023-05-10T03:26:58;4.53;;;2.23;;
5831;SDS011;50943;51.448;7.646;2023-05-10T03:29:27;4.50;;;2.03;;
5831;SDS011;50943;51.448;7.646;2023-05-10T03:31:54;5.67;;;2.37;;
5831;SDS011;50943;51.448;7.646;2023-05-10T03:34:24;5.70;;;2.70;;
5831;SDS011;50943;51.448;7.646;2023-05-10T03:36:53;5.17;;;2.63;;
5831;SDS011;50943;51.448;7.646;2023-05-10T03:39:19;4.73;;;2.23;;
5831;SDS011;50943;51.448;7.646;2023-05-10T03:41:46;4.23;;;2.37;;
5831;SDS011;50943;51.448;7.646;2023-05-10T03:44:12;6.70;;;2.10;;
5831;SDS011;50943;51.448;7.646;2023-05-10T03:46:39;4.27;;;2.73;;
5831;SDS011;50943;51.448;7.646;2023-05-10T03:49:05;5.20;;;2.37;;
5831;SDS011;50943;51.448;7.646;2023-05-10T03:51:33;4.97;;;2.70;;
5831;SDS011;50943;51.448;7.646;2023-05-10T03:53:59;4.47;;;2.57;;
5831;SDS011;50943;51.448;7.646;2023-05-10T03:56:26;12.87;;;2.50;;
5831;SDS011;50943;51.448;7.646;2023-05-10T03:58:52;4.13;;;2.30;;
5831;SDS011;50943;51.448;7.646;2023-05-10T04:01:19;7.53;;;2.53;;
5831;SDS011;50943;51.448;7.646;2023-05-10T04:03:45;5.20;;;2.60;;
5831;SDS011;50943;51.448;7.646;2023-05-10T04:06:12;4.63;;;2.67;;
5831;SDS011;50943;51.448;7.646;2023-05-10T04:08:39;4.47;;;2.40;;
5831;SDS011;50943;51.448;7.646;2023-05-10T04:11:06;5.67;;;2.30;;
5831;SDS011;50943;51.448;7.646;2023-05-10T04:13:33;9.00;;;2.73;;
5831;SDS011;50943;51.448;7.646;2023-05-10T04:15:59;5.27;;;2.80;;
5831;SDS011;50943;51.448;7.646;2023-05-10T04:18:26;7.37;;;3.90;;
5831;SDS011;50943;51.448;7.646;2023-05-10T04:20:52;7.97;;;4.10;;
5831;SDS011;50943;51.448;7.646;2023-05-10T04:23:18;9.00;;;5.20;;
5831;SDS011;50943;51.448;7.646;2023-05-10T04:25:46;12.20;;;6.97;;
5831;SDS011;50943;51.448;7.646;2023-05-10T04:28:13;13.43;;;7.90;;
5831;SDS011;50943;51.448;7.646;2023-05-10T04:30:39;14.17;;;7.50;;
5831;SDS011;50943;51.448;7.646;2023-05-10T04:33:06;12.33;;;8.20;;
5831;SDS011;50943;51.448;7.646;2023-05-10T04:35:33;13.30;;;7.70;;
5831;SDS011;50943;51.448;7.646;2023-05-10T04:37:59;14.50;;;8.10;;
5831;SDS011;50943;51.448;7.646;2023-05-10T04:40:26;13.23;;;7.77;;
5831;SDS011;50943;51.448;7.646;2023-05-10T04:42:53;19.87;;;9.17;;
5831;SDS011;50943;51.448;7.646;2023-05-10T04:45:20;13.70;;;8.60;;
5831;SDS011;50943;51.448;7.646;2023-05-10T04:47:47;20.77;;;9.77;;
5831;SDS011;50943;51.448;7.646;2023-05-10T04:50:13;17.80;;;9.83;;
5831;SDS011;50943;51.448;7.646;2023-05-10T04:52:40;20.73;;;10.63;;
5831;SDS011;50943;51.448;7.646;2023-05-10T04:55:07;22.87;;;11.20;;
5831;SDS011;50943;51.448;7.646;2023-05-10T04:57:34;21.47;;;10.20;;
5831;SDS011;50943;51.448;7.646;2023-05-10T05:00:02;24.53;;;11.70;;
5831;SDS011;50943;51.448;7.646;2023-05-10T05:02:29;19.60;;;11.00;;
5831;SDS011;50943;51.448;7.646;2023-05-10T05:04:55;23.30;;;12.60;;
5831;SDS011;50943;51.448;7.646;2023-05-10T05:07:22;24.77;;;11.87;;
5831;SDS011;50943;51.448;7.646;2023-05-10T05:09:49;20.90;;;11.20;;
5831;SDS011;50943;51.448;7.646;2023-05-10T05:12:15;22.00;;;11.40;;
5831;SDS011;50943;51.448;7.646;2023-05-10T05:14:41;19.90;;;10.87;;
5831;SDS011;50943;51.448;7.646;2023-05-10T05:17:09;21.00;;;10.97;;
5831;SDS011;50943;51.448;7.646;2023-05-10T05:19:36;21.57;;;11.07;;
5831;SDS011;50943;51.448;7.646;2023-05-10T05:22:02;22.60;;;11.40;;
5831;SDS011;50943;51.448;7.646;2023-05-10T05:24:28;22.30;;;11.10;;
5831;SDS011;50943;51.448;7.646;2023-05-10T05:26:55;22.57;;;10.57;;
5831;SDS011;50943;51.448;7.646;2023-05-10T05:29:21;22.67;;;10.73;;
5831;SDS011;50943;51.448;7.646;2023-05-10T05:31:47;22.13;;;11.53;;
5831;SDS011;50943;51.448;7.646;2023-05-10T05:34:15;27.03;;;12.40;;
5831;SDS011;50943;51.448;7.646;2023-05-10T05:36:41;22.47;;;11.60;;
5831;SDS011;50943;51.448;7.646;2023-05-10T05:39:08;22.30;;;11.77;;
5831;SDS011;50943;51.448;7.646;2023-05-10T05:41:34;26.57;;;12.43;;
5831;SDS011;50943;51.448;7.646;2023-05-10T05:44:00;23.73;;;12.87;;
5831;SDS011;50943;51.448;7.646;2023-05-10T05:46:27;33.23;;;13.20;;
5831;SDS011;50943;51.448;7.646;2023-05-10T05:48:53;33.00;;;14.13;;
5831;SDS011;50943;51.448;7.646;2023-05-10T05:51:21;32.60;;;14.17;;
5831;SDS011;50943;51.448;7.646;2023-05-10T05:53:47;33.83;;;15.37;;
5831;SDS011;50943;51.448;7.646;2023-05-10T05:56:13;34.93;;;14.10;;
5831;SDS011;50943;51.448;7.646;2023-05-10T05:58:40;34.93;;;15.13;;
5831;SDS011;50943;51.448;7.646;2023-05-10T06:01:06;35.20;;;15.50;;
5831;SDS011;50943;51.448;7.646;2023-05-10T06:03:33;40.93;;;16.77;;
5831;SDS011;50943;51.448;7.646;2023-05-10T06:06:00;39.30;;;15.60;;
5831;SDS011;50943;51.448;7.646;2023-05-10T06:08:28;38.90;;;17.30;;
5831;SDS011;50943;51.448;7.646;2023-05-10T06:10:54;45.70;;;18.70;;
5831;SDS011;50943;51.448;7.646;2023-05-10T06:13:21;51.00;;;19.20;;
5831;SDS011;50943;51.448;7.646;2023-05-10T06:15:48;48.57;;;19.17;;
5831;SDS011;50943;51.448;7.646;2023-05-10T06:18:15;55.93;;;19.27;;
5831;SDS011;50943;51.448;7.646;2023-05-10T06:20:41;52.43;;;19.43;;
5831;SDS011;50943;51.448;7.646;2023-05-10T06:23:08;56.43;;;20.53;;
5831;SDS011;50943;51.448;7.646;2023-05-10T06:25:35;57.50;;;22.33;;
5831;SDS011;50943;51.448;7.646;2023-05-10T06:28:02;50.30;;;20.80;;
5831;SDS011;50943;51.448;7.646;2023-05-10T06:30:28;50.97;;;20.57;;
5831;SDS011;50943;51.448;7.646;2023-05-10T06:32:55;57.77;;;21.17;;
5831;SDS011;50943;51.448;7.646;2023-05-10T06:35:21;53.07;;;20.60;;
5831;SDS011;50943;51.448;7.646;2023-05-10T06:37:47;53.53;;;20.53;;
5831;SDS011;50943;51.448;7.646;2023-05-10T06:40:14;52.60;;;21.97;;
5831;SDS011;50943;51.448;7.646;2023-05-10T06:42:42;59.57;;;22.80;;
5831;SDS011;50943;51.448;7.646;2023-05-10T06:45:10;53.53;;;20.93;;
5831;SDS011;50943;51.448;7.646;2023-05-10T06:47:36;58.30;;;21.20;;
5831;SDS011;50943;51.448;7.646;2023-05-10T06:50:02;62.90;;;21.57;;
5831;SDS011;50943;51.448;7.646;2023-05-10T06:52:29;55.90;;;22.40;;
5831;SDS011;50943;51.448;7.646;2023-05-10T06:54:55;65.13;;;22.90;;
5831;SDS011;50943;51.448;7.646;2023-05-10T06:57:22;56.17;;;22.77;;
5831;SDS011;50943;51.448;7.646;2023-05-10T06:59:51;61.30;;;21.27;;
5831;SDS011;50943;51.448;7.646;2023-05-10T07:02:17;54.60;;;22.97;;
5831;SDS011;50943;51.448;7.646;2023-05-10T07:04:44;53.67;;;21.27;;
5831;SDS011;50943;51.448;7.646;2023-05-10T07:07:10;63.87;;;25.40;;
5831;SDS011;50943;51.448;7.646;2023-05-10T07:09:36;63.80;;;23.90;;
5831;SDS011;50943;51.448;7.646;2023-05-10T07:12:03;65.97;;;24.17;;
5831;SDS011;50943;51.448;7.646;2023-05-10T07:14:29;73.10;;;25.10;;
5831;SDS011;50943;51.448;7.646;2023-05-10T07:16:57;86.23;;;28.43;;
5831;SDS011;50943;51.448;7.646;2023-05-10T07:19:24;69.07;;;25.40;;
5831;SDS011;50943;51.448;7.646;2023-05-10T07:21:50;63.83;;;25.53;;
5831;SDS011;50943;51.448;7.646;2023-05-10T07:24:16;60.33;;;26.30;;
5831;SDS011;50943;51.448;7.646;2023-05-10T07:26:44;58.00;;;25.70;;
5831;SDS011;50943;51.448;7.646;2023-05-10T07:29:11;53.13;;;25.03;;
5831;SDS011;50943;51.448;7.646;2023-05-10T07:31:37;46.57;;;22.73;;
5831;SDS011;50943;51.448;7.646;2023-05-10T07:34:05;56.57;;;23.20;;
5831;SDS011;50943;51.448;7.646;2023-05-10T07:36:31;52.10;;;23.90;;
5831;SDS011;50943;51.448;7.646;2023-05-10T07:38:58;60.93;;;25.97;;
5831;SDS011;50943;51.448;7.646;2023-05-10T07:41:24;50.10;;;23.40;;
5831;SDS011;50943;51.448;7.646;2023-05-10T07:43:51;44.40;;;23.70;;
5831;SDS011;50943;51.448;7.646;2023-05-10T07:46:17;40.43;;;21.20;;
5831;SDS011;50943;51.448;7.646;2023-05-10T07:48:44;39.10;;;19.07;;
5831;SDS011;50943;51.448;7.646;2023-05-10T07:51:12;31.80;;;18.87;;
5831;SDS011;50943;51.448;7.646;2023-05-10T07:53:38;32.67;;;18.83;;
5831;SDS011;50943;51.448;7.646;2023-05-10T07:56:19;34.50;;;19.17;;
5831;SDS011;50943;51.448;7.646;2023-05-10T07:58:46;31.47;;;18.20;;
5831;SDS011;50943;51.448;7.646;2023-05-10T08:01:12;43.87;;;23.50;;
5831;SDS011;50943;51.448;7.646;2023-05-10T08:03:39;34.50;;;20.00;;
5831;SDS011;50943;51.448;7.646;2023-05-10T08:06:05;33.63;;;18.60;;
5831;SDS011;50943;51.448;7.646;2023-05-10T08:08:33;26.20;;;16.40;;
5831;SDS011;50943;51.448;7.646;2023-05-10T08:10:59;26.63;;;15.90;;
5831;SDS011;50943;51.448;7.646;2023-05-10T08:13:26;21.40;;;13.80;;
5831;SDS011;50943;51.448;7.646;2023-05-10T08:15:52;19.43;;;13.17;;
5831;SDS011;50943;51.448;7.646;2023-05-10T08:18:18;29.63;;;15.33;;
5831;SDS011;50943;51.448;7.646;2023-05-10T08:20:45;23.43;;;13.87;;
5831;SDS011;50943;51.448;7.646;2023-05-10T08:23:12;22.10;;;13.10;;
5831;SDS011;50943;51.448;7.646;2023-05-10T08:25:40;23.87;;;14.73;;
5831;SDS011;50943;51.448;7.646;2023-05-10T08:28:06;23.90;;;14.83;;
5831;SDS011;50943;51.448;7.646;2023-05-10T08:30:32;23.20;;;13.83;;
5831;SDS011;50943;51.448;7.646;2023-05-10T08:32:59;22.07;;;14.20;;
5831;SDS011;50943;51.448;7.646;2023-05-10T08:35:25;23.73;;;13.97;;
5831;SDS011;50943;51.448;7.646;2023-05-10T08:37:51;21.67;;;11.57;;
5831;SDS011;50943;51.448;7.646;2023-05-10T08:40:19;22.37;;;11.67;;
5831;SDS011;50943;51.448;7.646;2023-05-10T08:42:47;25.93;;;14.23;;
5831;SDS011;50943;51.448;7.646;2023-05-10T08:45:16;23.60;;;13.60;;
5831;SDS011;50943;51.448;7.646;2023-05-10T08:47:43;18.87;;;10.37;;
5831;SDS011;50943;51.448;7.646;2023-05-10T08:50:10;13.00;;;8.70;;
5831;SDS011;50943;51.448;7.646;2023-05-10T08:52:37;13.70;;;7.80;;
5831;SDS011;50943;51.448;7.646;2023-05-10T08:55:04;11.67;;;7.00;;
5831;SDS011;50943;51.448;7.646;2023-05-10T08:57:31;15.87;;;9.03;;
5831;SDS011;50943;51.448;7.646;2023-05-10T09:00:00;13.60;;;9.00;;
5831;SDS011;50943;51.448;7.646;2023-05-10T09:02:27;19.80;;;8.90;;
5831;SDS011;50943;51.448;7.646;2023-05-10T09:04:55;15.03;;;8.27;;
5831;SDS011;50943;51.448;7.646;2023-05-10T09:07:21;15.20;;;7.87;;
5831;SDS011;50943;51.448;7.646;2023-05-10T09:09:47;13.77;;;8.70;;
5831;SDS011;50943;51.448;7.646;2023-05-10T09:12:14;12.30;;;8.37;;
5831;SDS011;50943;51.448;7.646;2023-05-10T09:14:41;19.97;;;9.30;;
5831;SDS011;50943;51.448;7.646;2023-05-10T09:17:09;16.90;;;8.67;;
5831;SDS011;50943;51.448;7.646;2023-05-10T09:19:36;13.53;;;7.63;;
5831;SDS011;50943;51.448;7.646;2023-05-10T09:22:02;11.83;;;6.27;;
5831;SDS011;50943;51.448;7.646;2023-05-10T09:24:29;11.63;;;6.10;;
5831;SDS011;50943;51.448;7.646;2023-05-10T09:26:56;8.83;;;5.67;;
5831;SDS011;50943;51.448;7.646;2023-05-10T09:29:22;11.73;;;6.17;;
5831;SDS011;50943;51.448;7.646;2023-05-10T09:31:49;11.90;;;7.07;;
5831;SDS011;50943;51.448;7.646;2023-05-10T09:34:19;10.60;;;5.57;;
5831;SDS011;50943;51.448;7.646;2023-05-10T09:36:50;17.83;;;5.43;;
5831;SDS011;50943;51.448;7.646;2023-05-10T09:39:16;8.87;;;4.30;;
5831;SDS011;50943;51.448;7.646;2023-05-10T09:41:42;11.53;;;5.93;;
5831;SDS011;50943;51.448;7.646;2023-05-10T09:44:10;8.93;;;4.93;;
5831;SDS011;50943;51.448;7.646;2023-05-10T09:46:37;8.80;;;4.83;;
5831;SDS011;50943;51.448;7.646;2023-05-10T09:49:04;7.77;;;5.07;;
5831;SDS011;50943;51.448;7.646;2023-05-10T09:51:32;9.63;;;5.47;;
5831;SDS011;50943;51.448;7.646;2023-05-10T09:56:44;7.90;;;5.00;;
5831;SDS011;50943;51.448;7.646;2023-05-10T09:59:11;8.43;;;5.23;;
5831;SDS011;50943;51.448;7.646;2023-05-10T10:01:38;7.83;;;4.97;;
5831;SDS011;50943;51.448;7.646;2023-05-10T10:04:05;10.03;;;5.60;;
5831;SDS011;50943;51.448;7.646;2023-05-10T10:06:37;9.93;;;5.00;;
5831;SDS011;50943;51.448;7.646;2023-05-10T10:09:03;8.30;;;4.07;;
5831;SDS011;50943;51.448;7.646;2023-05-10T10:11:30;7.63;;;4.87;;
5831;SDS011;50943;51.448;7.646;2023-05-10T10:13:57;7.27;;;4.77;;
5831;SDS011;50943;51.448;7.646;2023-05-10T10:16:24;6.70;;;3.87;;
5831;SDS011;50943;51.448;7.646;2023-05-10T10:18:50;5.87;;;4.00;;
5831;SDS011;50943;51.448;7.646;2023-05-10T10:21:17;6.00;;;3.83;;
5831;SDS011;50943;51.448;7.646;2023-05-10T10:23:44;9.10;;;5.00;;
5831;SDS011;50943;51.448;7.646;2023-05-10T10:26:12;8.73;;;5.13;;
5831;SDS011;50943;51.448;7.646;2023-05-10T10:28:40;6.13;;;4.23;;
5831;SDS011;50943;51.448;7.646;2023-05-10T10:31:13;8.63;;;4.93;;
5831;SDS011;50943;51.448;7.646;2023-05-10T10:33:50;6.97;;;4.60;;
5831;SDS011;50943;51.448;7.646;2023-05-10T10:36:17;10.03;;;4.87;;
5831;SDS011;50943;51.448;7.646;2023-05-10T10:38:58;4.83;;;3.30;;
5831;SDS011;50943;51.448;7.646;2023-05-10T10:41:32;7.40;;;3.53;;
5831;SDS011;50943;51.448;7.646;2023-05-10T10:49:21;6.17;;;3.80;;
5831;SDS011;50943;51.448;7.646;2023-05-10T10:54:30;8.63;;;5.23;;
5831;SDS011;50943;51.448;7.646;2023-05-10T10:57:10;8.40;;;5.10;;
5831;SDS011;50943;51.448;7.646;2023-05-10T10:59:42;8.23;;;4.93;;
5831;SDS011;50943;51.448;7.646;2023-05-10T11:02:09;9.03;;;4.60;;
5831;SDS011;50943;51.448;7.646;2023-05-10T11:04:41;10.17;;;4.93;;
5831;SDS011;50943;51.448;7.646;2023-05-10T11:07:17;7.83;;;4.63;;
5831;SDS011;50943;51.448;7.646;2023-05-10T11:09:47;8.83;;;5.13;;
5831;SDS011;50943;51.448;7.646;2023-05-10T11:12:14;11.90;;;5.37;;
5831;SDS011;50943;51.448;7.646;2023-05-10T11:14:41;8.33;;;5.00;;
5831;SDS011;50943;51.448;7.646;2023-05-10T11:17:23;9.03;;;4.70;;
5831;SDS011;50943;51.448;7.646;2023-05-10T11:20:06;14.50;;;5.37;;
5831;SDS011;50943;51.448;7.646;2023-05-10T11:22:34;9.60;;;5.17;;
5831;SDS011;50943;51.448;7.646;2023-05-10T11:25:16;10.23;;;6.10;;
5831;SDS011;50943;51.448;7.646;2023-05-10T11:27:42;14.47;;;7.43;;
5831;SDS011;50943;51.448;7.646;2023-05-10T11:30:09;13.20;;;8.33;;
5831;SDS011;50943;51.448;7.646;2023-05-10T11:32:36;18.80;;;10.67;;
5831;SDS011;50943;51.448;7.646;2023-05-10T11:35:06;17.87;;;11.30;;
5831;SDS011;50943;51.448;7.646;2023-05-10T11:37:33;22.00;;;12.37;;
5831;SDS011;50943;51.448;7.646;2023-05-10T11:39:59;24.23;;;11.80;;
5831;SDS011;50943;51.448;7.646;2023-05-10T11:42:28;22.43;;;11.87;;
5831;SDS011;50943;51.448;7.646;2023-05-10T11:44:55;25.00;;;13.10;;
5831;SDS011;50943;51.448;7.646;2023-05-10T11:47:21;23.03;;;12.83;;
5831;SDS011;50943;51.448;7.646;2023-05-10T11:49:47;24.87;;;12.83;;
5831;SDS011;50943;51.448;7.646;2023-05-10T11:52:15;18.80;;;11.80;;
5831;SDS011;50943;51.448;7.646;2023-05-10T11:54:44;21.90;;;12.13;;
5831;SDS011;50943;51.448;7.646;2023-05-10T11:57:11;21.00;;;11.80;;
5831;SDS011;50943;51.448;7.646;2023-05-10T11:59:39;18.67;;;10.03;;
5831;SDS011;50943;51.448;7.646;2023-05-10T12:02:05;18.17;;;9.57;;
5831;SDS011;50943;51.448;7.646;2023-05-10T12:04:31;16.37;;;8.90;;
5831;SDS011;50943;51.448;7.646;2023-05-10T12:06:58;21.53;;;8.07;;
5831;SDS011;50943;51.448;7.646;2023-05-10T12:09:24;14.67;;;8.60;;
5831;SDS011;50943;51.448;7.646;2023-05-10T12:11:54;13.10;;;7.87;;
5831;SDS011;50943;51.448;7.646;2023-05-10T12:14:21;12.47;;;7.20;;
5831;SDS011;50943;51.448;7.646;2023-05-10T12:16:49;15.93;;;8.23;;
5831;SDS011;50943;51.448;7.646;2023-05-10T12:19:19;10.80;;;7.27;;
5831;SDS011;50943;51.448;7.646;2023-05-10T12:21:46;12.33;;;7.57;;
5831;SDS011;50943;51.448;7.646;2023-05-10T12:24:13;15.80;;;7.40;;
5831;SDS011;50943;51.448;7.646;2023-05-10T12:26:41;15.53;;;7.20;;
5831;SDS011;50943;51.448;7.646;2023-05-10T12:29:14;13.73;;;7.47;;
5831;SDS011;50943;51.448;7.646;2023-05-10T12:31:58;13.47;;;8.17;;
5831;SDS011;50943;51.448;7.646;2023-05-10T12:34:25;13.30;;;7.70;;
5831;SDS011;50943;51.448;7.646;2023-05-10T12:36:52;14.20;;;7.20;;
5831;SDS011;50943;51.448;7.646;2023-05-10T12:39:19;13.40;;;7.37;;
5831;SDS011;50943;51.448;7.646;2023-05-10T12:41:45;12.67;;;8.03;;
5831;SDS011;50943;51.448;7.646;2023-05-10T12:44:11;16.10;;;10.03;;
5831;SDS011;50943;51.448;7.646;2023-05-10T12:46:38;14.90;;;8.53;;
5831;SDS011;50943;51.448;7.646;2023-05-10T12:49:06;13.67;;;9.60;;
5831;SDS011;50943;51.448;7.646;2023-05-10T12:51:32;13.67;;;9.90;;
5831;SDS011;50943;51.448;7.646;2023-05-10T12:53:58;14.37;;;9.60;;
5831;SDS011;50943;51.448;7.646;2023-05-10T12:56:25;13.00;;;8.10;;
5831;SDS011;50943;51.448;7.646;2023-05-10T12:58:51;14.07;;;7.20;;
5831;SDS011;50943;51.448;7.646;2023-05-10T13:01:18;10.70;;;6.23;;
5831;SDS011;50943;51.448;7.646;2023-05-10T13:03:45;13.73;;;5.90;;
5831;SDS011;50943;51.448;7.646;2023-05-10T13:06:12;10.00;;;7.37;;
5831;SDS011;50943;51.448;7.646;2023-05-10T13:08:39;9.73;;;7.00;;
5831;SDS011;50943;51.448;7.646;2023-05-10T13:11:05;10.83;;;7.73;;
5831;SDS011;50943;51.448;7.646;2023-05-10T13:13:32;9.17;;;6.60;;
5831;SDS011;50943;51.448;7.646;2023-05-10T13:15:58;9.50;;;7.23;;
5831;SDS011;50943;51.448;7.646;2023-05-10T13:18:24;9.83;;;6.87;;
5831;SDS011;50943;51.448;7.646;2023-05-10T13:20:51;10.23;;;6.70;;
5831;SDS011;50943;51.448;7.646;2023-05-10T13:23:20;9.70;;;6.50;;
5831;SDS011;50943;51.448;7.646;2023-05-10T13:25:46;11.50;;;7.17;;
5831;SDS011;50943;51.448;7.646;2023-05-10T13:28:12;13.70;;;7.00;;
5831;SDS011;50943;51.448;7.646;2023-05-10T13:30:39;11.33;;;6.63;;
5831;SDS011;50943;51.448;7.646;2023-05-10T13:33:08;9.67;;;6.37;;
5831;SDS011;50943;51.448;7.646;2023-05-10T13:35:35;10.40;;;6.23;;
5831;SDS011;50943;51.448;7.646;2023-05-10T13:38:01;10.07;;;6.73;;
5831;SDS011;50943;51.448;7.646;2023-05-10T13:40:29;10.23;;;6.33;;
5831;SDS011;50943;51.448;7.646;2023-05-10T13:42:55;11.53;;;7.43;;
5831;SDS011;50943;51.448;7.646;2023-05-10T13:45:22;9.23;;;6.83;;
5831;SDS011;50943;51.448;7.646;2023-05-10T13:47:48;12.63;;;7.80;;
5831;SDS011;50943;51.448;7.646;2023-05-10T13:50:15;10.50;;;7.23;;
5831;SDS011;50943;51.448;7.646;2023-05-10T13:52:56;11.90;;;8.10;;
5831;SDS011;50943;51.448;7.646;2023-05-10T13:55:24;11.50;;;8.50;;
5831;SDS011;50943;51.448;7.646;2023-05-10T13:57:51;9.97;;;7.40;;
5831;SDS011;50943;51.448;7.646;2023-05-10T14:00:18;9.57;;;6.70;;
5831;SDS011;50943;51.448;7.646;2023-05-10T14:02:44;9.13;;;6.70;;
5831;SDS011;50943;51.448;7.646;2023-05-10T14:05:11;9.93;;;6.33;;
5831;SDS011;50943;51.448;7.646;2023-05-10T14:07:37;11.63;;;6.30;;
5831;SDS011;50943;51.448;7.646;2023-05-10T14:10:03;9.63;;;5.50;;
5831;SDS011;50943;51.448;7.646;2023-05-10T14:12:30;9.90;;;5.73;;
5831;SDS011;50943;51.448;7.646;2023-05-10T14:14:57;10.53;;;4.87;;
5831;SDS011;50943;51.448;7.646;2023-05-10T14:17:24;6.30;;;4.63;;
5831;SDS011;50943;51.448;7.646;2023-05-10T14:19:51;6.60;;;4.73;;
5831;SDS011;50943;51.448;7.646;2023-05-10T14:22:17;9.43;;;4.57;;
5831;SDS011;50943;51.448;7.646;2023-05-10T14:24:43;6.27;;;4.70;;
5831;SDS011;50943;51.448;7.646;2023-05-10T14:27:11;8.50;;;5.77;;
5831;SDS011;50943;51.448;7.646;2023-05-10T14:29:38;11.83;;;6.47;;
5831;SDS011;50943;51.448;7.646;2023-05-10T14:32:08;11.57;;;7.00;;
5831;SDS011;50943;51.448;7.646;2023-05-10T14:34:34;10.47;;;6.50;;
5831;SDS011;50943;51.448;7.646;2023-05-10T14:37:01;9.23;;;6.30;;
5831;SDS011;50943;51.448;7.646;2023-05-10T14:39:27;13.40;;;6.97;;
5831;SDS011;50943;51.448;7.646;2023-05-10T14:41:54;14.90;;;6.90;;
5831;SDS011;50943;51.448;7.646;2023-05-10T14:44:21;9.03;;;6.20;;
5831;SDS011;50943;51.448;7.646;2023-05-10T14:46:47;12.20;;;7.40;;
5831;SDS011;50943;51.448;7.646;2023-05-10T14:49:16;11.80;;;6.67;;
5831;SDS011;50943;51.448;7.646;2023-05-10T14:51:42;10.40;;;6.90;;
5831;SDS011;50943;51.448;7.646;2023-05-10T14:54:10;13.27;;;7.10;;
5831;SDS011;50943;51.448;7.646;2023-05-10T14:56:36;11.27;;;6.73;;
5831;SDS011;50943;51.448;7.646;2023-05-10T14:59:03;9.80;;;6.67;;
5831;SDS011;50943;51.448;7.646;2023-05-10T15:01:29;9.50;;;6.33;;
5831;SDS011;50943;51.448;7.646;2023-05-10T15:03:56;10.37;;;6.47;;
5831;SDS011;50943;51.448;7.646;2023-05-10T15:06:31;7.23;;;5.80;;